sensor_id;sensor_type;location;lat;lon;timestamp;P1;durP1;ratioP1;P2;durP2;ratioP2
23596;SDS011;40226;50.874;4.394;2022-11-15T00:01:45;42.35;;;26.95;;
23596;SDS011;40226;50.874;4.394;2022-11-15T00:04:10;40.97;;;27.48;;
23596;SDS011;40226;50.874;4.394;2022-11-15T00:06:36;43.00;;;27.40;;
23596;SDS011;40226;50.874;4.394;2022-11-15T00:09:02;43.92;;;28.75;;
23596;SDS011;40226;50.874;4.394;2022-11-15T00:11:28;50.58;;;28.33;;
23596;SDS011;40226;50.874;4.394;2022-11-15T00:13:55;43.25;;;27.33;;
23596;SDS011;40226;50.874;4.394;2022-11-15T00:16:21;45.45;;;28.35;;
23596;SDS011;40226;50.874;4.394;2022-11-15T00:18:47;44.97;;;28.75;;
23596;SDS011;40226;50.874;4.394;2022-11-15T00:21:13;42.00;;;27.88;;
23596;SDS011;40226;50.874;4.394;2022-11-15T00:23:39;48.53;;;29.27;;
23596;SDS011;40226;50.874;4.394;2022-11-15T00:26:05;44.90;;;27.35;;
23596;SDS011;40226;50.874;4.394;2022-11-15T00:28:30;45.35;;;27.77;;
23596;SDS011;40226;50.874;4.394;2022-11-15T00:31:00;49.88;;;28.85;;
23596;SDS011;40226;50.874;4.394;2022-11-15T00:33:26;49.95;;;29.23;;
23596;SDS011;40226;50.874;4.394;2022-11-15T00:35:52;46.25;;;29.58;;
23596;SDS011;40226;50.874;4.394;2022-11-15T00:38:17;50.10;;;27.98;;
23596;SDS011;40226;50.874;4.394;2022-11-15T00:40:43;47.38;;;28.42;;
23596;SDS011;40226;50.874;4.394;2022-11-15T00:43:08;49.40;;;29.70;;
23596;SDS011;40226;50.874;4.394;2022-11-15T00:45:34;46.08;;;29.13;;
23596;SDS011;40226;50.874;4.394;2022-11-15T00:47:59;46.50;;;28.65;;
23596;SDS011;40226;50.874;4.394;2022-11-15T00:50:25;49.75;;;29.70;;
23596;SDS011;40226;50.874;4.394;2022-11-15T00:52:50;43.97;;;28.75;;
23596;SDS011;40226;50.874;4.394;2022-11-15T00:55:16;44.78;;;28.98;;
23596;SDS011;40226;50.874;4.394;2022-11-15T00:57:43;46.88;;;28.38;;
23596;SDS011;40226;50.874;4.394;2022-11-15T01:00:09;44.60;;;28.63;;
23596;SDS011;40226;50.874;4.394;2022-11-15T01:02:35;45.15;;;27.63;;
23596;SDS011;40226;50.874;4.394;2022-11-15T01:05:00;43.65;;;27.83;;
23596;SDS011;40226;50.874;4.394;2022-11-15T01:07:26;45.33;;;29.35;;
23596;SDS011;40226;50.874;4.394;2022-11-15T01:09:52;45.42;;;29.58;;
23596;SDS011;40226;50.874;4.394;2022-11-15T01:12:17;52.03;;;31.20;;
23596;SDS011;40226;50.874;4.394;2022-11-15T01:14:43;48.45;;;30.35;;
23596;SDS011;40226;50.874;4.394;2022-11-15T01:17:09;51.15;;;29.52;;
23596;SDS011;40226;50.874;4.394;2022-11-15T01:19:35;50.72;;;31.05;;
23596;SDS011;40226;50.874;4.394;2022-11-15T01:22:00;47.53;;;29.75;;
23596;SDS011;40226;50.874;4.394;2022-11-15T01:24:27;45.35;;;26.75;;
23596;SDS011;40226;50.874;4.394;2022-11-15T01:26:52;47.70;;;28.48;;
23596;SDS011;40226;50.874;4.394;2022-11-15T01:29:18;49.42;;;28.67;;
23596;SDS011;40226;50.874;4.394;2022-11-15T01:31:44;49.13;;;30.85;;
23596;SDS011;40226;50.874;4.394;2022-11-15T01:34:09;47.97;;;27.38;;
23596;SDS011;40226;50.874;4.394;2022-11-15T01:36:35;50.75;;;29.30;;
23596;SDS011;40226;50.874;4.394;2022-11-15T01:39:01;50.70;;;29.20;;
23596;SDS011;40226;50.874;4.394;2022-11-15T01:41:28;44.42;;;27.20;;
23596;SDS011;40226;50.874;4.394;2022-11-15T01:43:56;50.78;;;27.90;;
23596;SDS011;40226;50.874;4.394;2022-11-15T01:46:45;43.70;;;26.73;;
23596;SDS011;40226;50.874;4.394;2022-11-15T01:49:14;45.28;;;29.05;;
23596;SDS011;40226;50.874;4.394;2022-11-15T01:51:42;41.38;;;26.25;;
23596;SDS011;40226;50.874;4.394;2022-11-15T01:54:09;45.63;;;27.42;;
23596;SDS011;40226;50.874;4.394;2022-11-15T01:56:44;39.72;;;24.73;;
23596;SDS011;40226;50.874;4.394;2022-11-15T01:59:17;40.08;;;25.95;;
23596;SDS011;40226;50.874;4.394;2022-11-15T02:01:43;39.90;;;25.55;;
23596;SDS011;40226;50.874;4.394;2022-11-15T02:04:16;38.30;;;25.73;;
23596;SDS011;40226;50.874;4.394;2022-11-15T02:06:46;36.40;;;23.63;;
23596;SDS011;40226;50.874;4.394;2022-11-15T02:09:13;37.38;;;24.52;;
23596;SDS011;40226;50.874;4.394;2022-11-15T02:11:38;39.30;;;24.85;;
23596;SDS011;40226;50.874;4.394;2022-11-15T02:14:04;38.72;;;24.42;;
23596;SDS011;40226;50.874;4.394;2022-11-15T02:32:21;41.28;;;26.10;;
23596;SDS011;40226;50.874;4.394;2022-11-15T02:37:57;40.20;;;25.38;;
23596;SDS011;40226;50.874;4.394;2022-11-15T02:43:10;43.80;;;25.17;;
23596;SDS011;40226;50.874;4.394;2022-11-15T02:46:01;42.60;;;24.52;;
23596;SDS011;40226;50.874;4.394;2022-11-15T02:49:11;44.65;;;25.50;;
23596;SDS011;40226;50.874;4.394;2022-11-15T02:51:38;40.42;;;24.83;;
23596;SDS011;40226;50.874;4.394;2022-11-15T02:54:04;40.30;;;21.48;;
23596;SDS011;40226;50.874;4.394;2022-11-15T02:56:30;38.80;;;22.08;;
23596;SDS011;40226;50.874;4.394;2022-11-15T03:04:19;37.50;;;22.42;;
23596;SDS011;40226;50.874;4.394;2022-11-15T03:07:03;32.85;;;20.50;;
23596;SDS011;40226;50.874;4.394;2022-11-15T03:09:41;32.45;;;20.48;;
23596;SDS011;40226;50.874;4.394;2022-11-15T03:12:16;33.38;;;20.67;;
23596;SDS011;40226;50.874;4.394;2022-11-15T03:20:01;28.95;;;17.85;;
23596;SDS011;40226;50.874;4.394;2022-11-15T03:22:29;28.45;;;17.08;;
23596;SDS011;40226;50.874;4.394;2022-11-15T03:25:00;28.33;;;17.38;;
23596;SDS011;40226;50.874;4.394;2022-11-15T03:27:32;29.30;;;16.00;;
23596;SDS011;40226;50.874;4.394;2022-11-15T03:30:04;24.30;;;16.08;;
23596;SDS011;40226;50.874;4.394;2022-11-15T03:32:33;31.83;;;16.35;;
23596;SDS011;40226;50.874;4.394;2022-11-15T03:35:08;26.27;;;15.25;;
23596;SDS011;40226;50.874;4.394;2022-11-15T03:40:22;24.88;;;14.82;;
23596;SDS011;40226;50.874;4.394;2022-11-15T03:42:59;25.92;;;14.30;;
23596;SDS011;40226;50.874;4.394;2022-11-15T03:45:33;21.92;;;13.63;;
23596;SDS011;40226;50.874;4.394;2022-11-15T03:48:10;24.52;;;13.63;;
23596;SDS011;40226;50.874;4.394;2022-11-15T03:50:37;25.00;;;13.48;;
23596;SDS011;40226;50.874;4.394;2022-11-15T03:53:03;24.65;;;14.23;;
23596;SDS011;40226;50.874;4.394;2022-11-15T03:55:31;25.55;;;13.70;;
23596;SDS011;40226;50.874;4.394;2022-11-15T03:57:57;21.20;;;12.85;;
23596;SDS011;40226;50.874;4.394;2022-11-15T04:00:24;19.50;;;13.10;;
23596;SDS011;40226;50.874;4.394;2022-11-15T04:02:50;21.20;;;12.27;;
23596;SDS011;40226;50.874;4.394;2022-11-15T04:05:16;18.63;;;12.52;;
23596;SDS011;40226;50.874;4.394;2022-11-15T04:12:45;22.33;;;12.50;;
23596;SDS011;40226;50.874;4.394;2022-11-15T04:15:15;22.85;;;12.50;;
23596;SDS011;40226;50.874;4.394;2022-11-15T04:17:46;22.02;;;11.10;;
23596;SDS011;40226;50.874;4.394;2022-11-15T04:20:27;20.42;;;11.10;;
23596;SDS011;40226;50.874;4.394;2022-11-15T04:23:14;23.30;;;11.82;;
23596;SDS011;40226;50.874;4.394;2022-11-15T04:26:01;21.45;;;11.52;;
23596;SDS011;40226;50.874;4.394;2022-11-15T04:28:32;20.23;;;10.63;;
23596;SDS011;40226;50.874;4.394;2022-11-15T04:30:58;18.58;;;11.30;;
23596;SDS011;40226;50.874;4.394;2022-11-15T04:33:23;15.18;;;9.73;;
23596;SDS011;40226;50.874;4.394;2022-11-15T04:35:49;21.30;;;10.45;;
23596;SDS011;40226;50.874;4.394;2022-11-15T04:38:34;18.65;;;9.73;;
23596;SDS011;40226;50.874;4.394;2022-11-15T04:41:00;17.30;;;10.02;;
23596;SDS011;40226;50.874;4.394;2022-11-15T04:43:26;18.85;;;10.52;;
23596;SDS011;40226;50.874;4.394;2022-11-15T04:45:52;17.35;;;10.23;;
23596;SDS011;40226;50.874;4.394;2022-11-15T04:48:19;20.88;;;10.95;;
23596;SDS011;40226;50.874;4.394;2022-11-15T04:50:44;19.13;;;9.88;;
23596;SDS011;40226;50.874;4.394;2022-11-15T04:53:13;17.73;;;10.38;;
23596;SDS011;40226;50.874;4.394;2022-11-15T04:55:38;16.25;;;9.57;;
23596;SDS011;40226;50.874;4.394;2022-11-15T04:58:04;13.77;;;8.55;;
23596;SDS011;40226;50.874;4.394;2022-11-15T05:00:29;17.83;;;9.57;;
23596;SDS011;40226;50.874;4.394;2022-11-15T05:02:56;18.85;;;9.05;;
23596;SDS011;40226;50.874;4.394;2022-11-15T05:05:41;20.83;;;9.65;;
23596;SDS011;40226;50.874;4.394;2022-11-15T05:08:07;17.88;;;9.32;;
23596;SDS011;40226;50.874;4.394;2022-11-15T05:10:32;20.45;;;9.77;;
23596;SDS011;40226;50.874;4.394;2022-11-15T05:12:58;19.73;;;8.98;;
23596;SDS011;40226;50.874;4.394;2022-11-15T05:15:24;17.42;;;8.75;;
23596;SDS011;40226;50.874;4.394;2022-11-15T05:17:49;14.60;;;8.77;;
23596;SDS011;40226;50.874;4.394;2022-11-15T05:20:15;15.13;;;8.85;;
23596;SDS011;40226;50.874;4.394;2022-11-15T05:22:40;15.65;;;8.25;;
23596;SDS011;40226;50.874;4.394;2022-11-15T05:25:06;18.83;;;7.78;;
23596;SDS011;40226;50.874;4.394;2022-11-15T05:27:33;17.40;;;7.80;;
23596;SDS011;40226;50.874;4.394;2022-11-15T05:29:59;16.00;;;7.78;;
23596;SDS011;40226;50.874;4.394;2022-11-15T05:32:24;18.25;;;7.95;;
23596;SDS011;40226;50.874;4.394;2022-11-15T05:34:50;15.80;;;7.20;;
23596;SDS011;40226;50.874;4.394;2022-11-15T05:37:16;16.05;;;7.75;;
23596;SDS011;40226;50.874;4.394;2022-11-15T05:39:42;11.63;;;6.85;;
23596;SDS011;40226;50.874;4.394;2022-11-15T05:42:12;18.13;;;7.18;;
23596;SDS011;40226;50.874;4.394;2022-11-15T05:44:39;17.17;;;7.13;;
23596;SDS011;40226;50.874;4.394;2022-11-15T05:47:09;12.27;;;6.85;;
23596;SDS011;40226;50.874;4.394;2022-11-15T05:49:39;16.08;;;6.68;;
23596;SDS011;40226;50.874;4.394;2022-11-15T05:52:07;15.77;;;7.70;;
23596;SDS011;40226;50.874;4.394;2022-11-15T05:54:35;19.52;;;7.20;;
23596;SDS011;40226;50.874;4.394;2022-11-15T05:57:01;16.02;;;6.97;;
23596;SDS011;40226;50.874;4.394;2022-11-15T05:59:28;16.48;;;7.47;;
23596;SDS011;40226;50.874;4.394;2022-11-15T06:01:55;15.43;;;7.20;;
23596;SDS011;40226;50.874;4.394;2022-11-15T06:04:21;17.67;;;7.53;;
23596;SDS011;40226;50.874;4.394;2022-11-15T06:06:46;19.60;;;7.70;;
23596;SDS011;40226;50.874;4.394;2022-11-15T06:09:12;18.33;;;7.88;;
23596;SDS011;40226;50.874;4.394;2022-11-15T06:11:38;13.00;;;7.55;;
23596;SDS011;40226;50.874;4.394;2022-11-15T06:14:03;17.42;;;8.88;;
23596;SDS011;40226;50.874;4.394;2022-11-15T06:16:29;13.43;;;7.82;;
23596;SDS011;40226;50.874;4.394;2022-11-15T06:18:54;16.95;;;8.00;;
23596;SDS011;40226;50.874;4.394;2022-11-15T06:21:20;19.67;;;8.18;;
23596;SDS011;40226;50.874;4.394;2022-11-15T06:23:46;14.10;;;8.13;;
23596;SDS011;40226;50.874;4.394;2022-11-15T06:26:11;18.55;;;7.78;;
23596;SDS011;40226;50.874;4.394;2022-11-15T06:28:37;13.70;;;7.55;;
23596;SDS011;40226;50.874;4.394;2022-11-15T06:31:03;16.92;;;8.18;;
23596;SDS011;40226;50.874;4.394;2022-11-15T06:33:30;17.88;;;7.43;;
23596;SDS011;40226;50.874;4.394;2022-11-15T06:35:56;20.13;;;7.88;;
23596;SDS011;40226;50.874;4.394;2022-11-15T06:38:26;17.35;;;7.20;;
23596;SDS011;40226;50.874;4.394;2022-11-15T06:40:51;15.25;;;7.88;;
23596;SDS011;40226;50.874;4.394;2022-11-15T06:43:17;16.60;;;7.28;;
23596;SDS011;40226;50.874;4.394;2022-11-15T06:45:42;15.23;;;8.00;;
23596;SDS011;40226;50.874;4.394;2022-11-15T06:48:08;15.45;;;7.80;;
23596;SDS011;40226;50.874;4.394;2022-11-15T06:50:33;13.75;;;7.15;;
23596;SDS011;40226;50.874;4.394;2022-11-15T06:53:05;15.05;;;7.55;;
23596;SDS011;40226;50.874;4.394;2022-11-15T06:55:30;18.50;;;7.90;;
23596;SDS011;40226;50.874;4.394;2022-11-15T06:57:56;17.33;;;7.55;;
23596;SDS011;40226;50.874;4.394;2022-11-15T07:00:21;15.80;;;7.55;;
23596;SDS011;40226;50.874;4.394;2022-11-15T07:02:48;17.38;;;8.32;;
23596;SDS011;40226;50.874;4.394;2022-11-15T07:05:14;19.85;;;8.60;;
23596;SDS011;40226;50.874;4.394;2022-11-15T07:07:40;14.15;;;7.78;;
23596;SDS011;40226;50.874;4.394;2022-11-15T07:10:06;18.30;;;7.78;;
23596;SDS011;40226;50.874;4.394;2022-11-15T07:12:32;15.10;;;8.15;;
23596;SDS011;40226;50.874;4.394;2022-11-15T07:14:58;14.35;;;7.47;;
23596;SDS011;40226;50.874;4.394;2022-11-15T07:17:24;15.35;;;8.10;;
23596;SDS011;40226;50.874;4.394;2022-11-15T07:19:49;24.00;;;7.97;;
23596;SDS011;40226;50.874;4.394;2022-11-15T07:22:15;14.60;;;7.50;;
23596;SDS011;40226;50.874;4.394;2022-11-15T07:24:40;12.55;;;7.47;;
23596;SDS011;40226;50.874;4.394;2022-11-15T07:27:06;14.30;;;6.63;;
23596;SDS011;40226;50.874;4.394;2022-11-15T07:29:31;12.93;;;7.03;;
23596;SDS011;40226;50.874;4.394;2022-11-15T07:31:57;10.10;;;6.93;;
23596;SDS011;40226;50.874;4.394;2022-11-15T07:34:23;14.68;;;7.32;;
23596;SDS011;40226;50.874;4.394;2022-11-15T07:36:48;15.73;;;7.60;;
23596;SDS011;40226;50.874;4.394;2022-11-15T07:39:14;16.05;;;7.53;;
23596;SDS011;40226;50.874;4.394;2022-11-15T07:41:40;16.10;;;8.13;;
23596;SDS011;40226;50.874;4.394;2022-11-15T07:44:05;10.95;;;7.28;;
23596;SDS011;40226;50.874;4.394;2022-11-15T07:46:31;14.50;;;7.00;;
23596;SDS011;40226;50.874;4.394;2022-11-15T07:48:56;14.60;;;5.93;;
23596;SDS011;40226;50.874;4.394;2022-11-15T07:51:22;14.48;;;6.75;;
23596;SDS011;40226;50.874;4.394;2022-11-15T07:53:48;18.25;;;7.30;;
23596;SDS011;40226;50.874;4.394;2022-11-15T07:56:14;11.85;;;5.93;;
23596;SDS011;40226;50.874;4.394;2022-11-15T07:58:39;12.20;;;6.85;;
23596;SDS011;40226;50.874;4.394;2022-11-15T08:01:06;9.90;;;6.35;;
23596;SDS011;40226;50.874;4.394;2022-11-15T08:03:33;14.25;;;7.07;;
23596;SDS011;40226;50.874;4.394;2022-11-15T08:05:58;11.70;;;7.07;;
23596;SDS011;40226;50.874;4.394;2022-11-15T08:08:24;11.85;;;6.82;;
23596;SDS011;40226;50.874;4.394;2022-11-15T08:10:50;15.02;;;6.40;;
23596;SDS011;40226;50.874;4.394;2022-11-15T08:13:16;10.43;;;6.90;;
23596;SDS011;40226;50.874;4.394;2022-11-15T08:15:42;13.65;;;6.90;;
23596;SDS011;40226;50.874;4.394;2022-11-15T08:18:13;12.25;;;6.60;;
23596;SDS011;40226;50.874;4.394;2022-11-15T08:20:40;11.95;;;5.60;;
23596;SDS011;40226;50.874;4.394;2022-11-15T08:23:06;9.10;;;5.90;;
23596;SDS011;40226;50.874;4.394;2022-11-15T08:25:35;11.07;;;5.85;;
23596;SDS011;40226;50.874;4.394;2022-11-15T08:28:02;12.05;;;5.38;;
23596;SDS011;40226;50.874;4.394;2022-11-15T08:30:30;10.38;;;5.50;;
23596;SDS011;40226;50.874;4.394;2022-11-15T08:32:56;10.25;;;4.60;;
23596;SDS011;40226;50.874;4.394;2022-11-15T08:35:23;7.43;;;4.55;;
23596;SDS011;40226;50.874;4.394;2022-11-15T08:37:49;9.73;;;4.40;;
23596;SDS011;40226;50.874;4.394;2022-11-15T08:40:17;8.82;;;3.90;;
23596;SDS011;40226;50.874;4.394;2022-11-15T08:42:45;11.50;;;4.47;;
23596;SDS011;40226;50.874;4.394;2022-11-15T08:45:11;12.32;;;4.30;;
23596;SDS011;40226;50.874;4.394;2022-11-15T08:47:37;10.73;;;4.80;;
23596;SDS011;40226;50.874;4.394;2022-11-15T08:50:02;10.55;;;4.00;;
23596;SDS011;40226;50.874;4.394;2022-11-15T08:52:29;14.23;;;4.10;;
23596;SDS011;40226;50.874;4.394;2022-11-15T08:54:55;10.52;;;4.22;;
23596;SDS011;40226;50.874;4.394;2022-11-15T08:57:21;9.48;;;3.83;;
23596;SDS011;40226;50.874;4.394;2022-11-15T08:59:46;10.73;;;4.15;;
23596;SDS011;40226;50.874;4.394;2022-11-15T09:02:12;7.53;;;3.50;;
23596;SDS011;40226;50.874;4.394;2022-11-15T09:04:43;10.55;;;3.20;;
23596;SDS011;40226;50.874;4.394;2022-11-15T09:07:12;8.52;;;3.28;;
23596;SDS011;40226;50.874;4.394;2022-11-15T09:09:38;8.02;;;3.45;;
23596;SDS011;40226;50.874;4.394;2022-11-15T09:12:05;10.52;;;4.00;;
23596;SDS011;40226;50.874;4.394;2022-11-15T09:14:31;9.02;;;3.25;;
23596;SDS011;40226;50.874;4.394;2022-11-15T09:16:58;9.98;;;3.35;;
23596;SDS011;40226;50.874;4.394;2022-11-15T09:19:24;11.80;;;3.10;;
23596;SDS011;40226;50.874;4.394;2022-11-15T09:21:49;10.48;;;3.45;;
23596;SDS011;40226;50.874;4.394;2022-11-15T09:24:15;11.50;;;3.25;;
23596;SDS011;40226;50.874;4.394;2022-11-15T09:26:42;9.00;;;3.30;;
23596;SDS011;40226;50.874;4.394;2022-11-15T09:29:09;9.30;;;3.05;;
23596;SDS011;40226;50.874;4.394;2022-11-15T09:31:35;10.07;;;2.63;;
23596;SDS011;40226;50.874;4.394;2022-11-15T09:34:00;9.13;;;3.40;;
23596;SDS011;40226;50.874;4.394;2022-11-15T09:36:26;12.75;;;3.15;;
23596;SDS011;40226;50.874;4.394;2022-11-15T09:38:52;14.52;;;3.17;;
23596;SDS011;40226;50.874;4.394;2022-11-15T09:49:30;11.98;;;2.40;;
23596;SDS011;40226;50.874;4.394;2022-11-15T09:51:56;8.88;;;2.55;;
23596;SDS011;40226;50.874;4.394;2022-11-15T09:56:56;7.75;;;2.40;;
23596;SDS011;40226;50.874;4.394;2022-11-15T10:05:18;10.70;;;2.20;;
23596;SDS011;40226;50.874;4.394;2022-11-15T10:07:49;15.13;;;2.85;;
23596;SDS011;40226;50.874;4.394;2022-11-15T10:13:23;9.80;;;2.20;;
23596;SDS011;40226;50.874;4.394;2022-11-15T10:15:54;10.05;;;2.38;;
23596;SDS011;40226;50.874;4.394;2022-11-15T10:24:25;11.98;;;2.17;;
23596;SDS011;40226;50.874;4.394;2022-11-15T10:26:55;10.85;;;2.60;;
23596;SDS011;40226;50.874;4.394;2022-11-15T10:29:22;11.75;;;3.13;;
23596;SDS011;40226;50.874;4.394;2022-11-15T10:31:49;12.80;;;2.65;;
23596;SDS011;40226;50.874;4.394;2022-11-15T10:36:53;8.27;;;1.98;;
23596;SDS011;40226;50.874;4.394;2022-11-15T10:39:23;9.88;;;2.00;;
23596;SDS011;40226;50.874;4.394;2022-11-15T10:41:50;7.93;;;2.10;;
23596;SDS011;40226;50.874;4.394;2022-11-15T10:46:42;10.05;;;1.77;;
23596;SDS011;40226;50.874;4.394;2022-11-15T10:49:13;13.25;;;2.22;;
23596;SDS011;40226;50.874;4.394;2022-11-15T10:51:48;10.07;;;2.75;;
23596;SDS011;40226;50.874;4.394;2022-11-15T10:54:25;15.25;;;2.08;;
23596;SDS011;40226;50.874;4.394;2022-11-15T10:56:55;11.90;;;3.45;;
23596;SDS011;40226;50.874;4.394;2022-11-15T10:59:26;11.68;;;2.90;;
23596;SDS011;40226;50.874;4.394;2022-11-15T11:01:56;10.50;;;2.47;;
23596;SDS011;40226;50.874;4.394;2022-11-15T11:04:22;15.38;;;3.10;;
23596;SDS011;40226;50.874;4.394;2022-11-15T11:09:27;13.48;;;3.25;;
23596;SDS011;40226;50.874;4.394;2022-11-15T11:11:58;12.20;;;2.70;;
23596;SDS011;40226;50.874;4.394;2022-11-15T11:14:26;8.60;;;2.60;;
23596;SDS011;40226;50.874;4.394;2022-11-15T11:28:24;7.22;;;2.15;;
23596;SDS011;40226;50.874;4.394;2022-11-15T11:31:07;7.72;;;2.10;;
23596;SDS011;40226;50.874;4.394;2022-11-15T11:44:24;7.25;;;1.70;;
23596;SDS011;40226;50.874;4.394;2022-11-15T11:47:03;8.63;;;2.17;;
23596;SDS011;40226;50.874;4.394;2022-11-15T11:49:41;12.13;;;2.60;;
23596;SDS011;40226;50.874;4.394;2022-11-15T11:52:33;9.35;;;2.10;;
23596;SDS011;40226;50.874;4.394;2022-11-15T11:57:41;11.23;;;2.45;;
23596;SDS011;40226;50.874;4.394;2022-11-15T12:00:14;11.60;;;2.38;;
23596;SDS011;40226;50.874;4.394;2022-11-15T12:02:48;10.55;;;2.50;;
23596;SDS011;40226;50.874;4.394;2022-11-15T12:05:44;5.85;;;1.63;;
23596;SDS011;40226;50.874;4.394;2022-11-15T12:10:44;8.45;;;2.03;;
23596;SDS011;40226;50.874;4.394;2022-11-15T12:13:15;9.40;;;2.60;;
23596;SDS011;40226;50.874;4.394;2022-11-15T12:15:45;13.52;;;2.20;;
23596;SDS011;40226;50.874;4.394;2022-11-15T12:18:32;8.43;;;1.73;;
23596;SDS011;40226;50.874;4.394;2022-11-15T12:21:00;9.23;;;2.20;;
23596;SDS011;40226;50.874;4.394;2022-11-15T12:23:42;5.57;;;2.13;;
23596;SDS011;40226;50.874;4.394;2022-11-15T12:26:17;10.55;;;2.00;;
23596;SDS011;40226;50.874;4.394;2022-11-15T12:34:03;8.20;;;2.22;;
23596;SDS011;40226;50.874;4.394;2022-11-15T12:36:42;6.90;;;1.90;;
23596;SDS011;40226;50.874;4.394;2022-11-15T12:39:09;9.18;;;1.70;;
23596;SDS011;40226;50.874;4.394;2022-11-15T12:41:37;6.43;;;1.73;;
23596;SDS011;40226;50.874;4.394;2022-11-15T12:44:05;5.82;;;1.67;;
23596;SDS011;40226;50.874;4.394;2022-11-15T12:47:03;14.27;;;2.33;;
23596;SDS011;40226;50.874;4.394;2022-11-15T12:49:48;6.65;;;2.08;;
23596;SDS011;40226;50.874;4.394;2022-11-15T12:52:14;13.57;;;2.58;;
23596;SDS011;40226;50.874;4.394;2022-11-15T13:02:30;6.18;;;1.70;;
23596;SDS011;40226;50.874;4.394;2022-11-15T13:10:29;7.07;;;2.28;;
23596;SDS011;40226;50.874;4.394;2022-11-15T13:12:53;7.00;;;2.15;;
23596;SDS011;40226;50.874;4.394;2022-11-15T13:18:26;9.02;;;2.58;;
23596;SDS011;40226;50.874;4.394;2022-11-15T13:20:57;5.95;;;2.10;;
23596;SDS011;40226;50.874;4.394;2022-11-15T13:23:23;5.80;;;1.75;;
23596;SDS011;40226;50.874;4.394;2022-11-15T13:28:44;4.05;;;1.77;;
23596;SDS011;40226;50.874;4.394;2022-11-15T13:31:19;7.20;;;2.20;;
23596;SDS011;40226;50.874;4.394;2022-11-15T13:33:48;9.10;;;2.15;;
23596;SDS011;40226;50.874;4.394;2022-11-15T13:39:01;3.33;;;2.00;;
23596;SDS011;40226;50.874;4.394;2022-11-15T13:41:31;8.93;;;2.05;;
23596;SDS011;40226;50.874;4.394;2022-11-15T13:43:59;5.13;;;2.10;;
23596;SDS011;40226;50.874;4.394;2022-11-15T13:48:56;4.82;;;1.88;;
23596;SDS011;40226;50.874;4.394;2022-11-15T13:51:45;11.27;;;2.60;;
23596;SDS011;40226;50.874;4.394;2022-11-15T13:54:16;6.65;;;2.20;;
23596;SDS011;40226;50.874;4.394;2022-11-15T13:56:53;6.68;;;2.20;;
23596;SDS011;40226;50.874;4.394;2022-11-15T14:02:14;4.88;;;1.92;;
23596;SDS011;40226;50.874;4.394;2022-11-15T14:04:46;3.38;;;2.00;;
23596;SDS011;40226;50.874;4.394;2022-11-15T14:07:23;5.43;;;2.38;;
23596;SDS011;40226;50.874;4.394;2022-11-15T14:09:50;8.90;;;2.10;;
23596;SDS011;40226;50.874;4.394;2022-11-15T14:12:21;5.07;;;2.25;;
23596;SDS011;40226;50.874;4.394;2022-11-15T14:14:49;3.83;;;2.10;;
23596;SDS011;40226;50.874;4.394;2022-11-15T14:17:19;7.07;;;2.70;;
23596;SDS011;40226;50.874;4.394;2022-11-15T14:19:48;7.97;;;3.20;;
23596;SDS011;40226;50.874;4.394;2022-11-15T14:27:38;7.28;;;3.13;;
23596;SDS011;40226;50.874;4.394;2022-11-15T14:30:05;7.63;;;3.35;;
23596;SDS011;40226;50.874;4.394;2022-11-15T14:32:44;5.05;;;2.60;;
23596;SDS011;40226;50.874;4.394;2022-11-15T14:35:14;5.05;;;2.80;;
23596;SDS011;40226;50.874;4.394;2022-11-15T14:37:44;7.10;;;2.95;;
23596;SDS011;40226;50.874;4.394;2022-11-15T14:40:12;6.00;;;3.13;;
23596;SDS011;40226;50.874;4.394;2022-11-15T14:42:39;7.72;;;3.42;;
23596;SDS011;40226;50.874;4.394;2022-11-15T14:45:10;5.15;;;3.22;;
23596;SDS011;40226;50.874;4.394;2022-11-15T14:47:39;7.15;;;3.85;;
23596;SDS011;40226;50.874;4.394;2022-11-15T14:50:05;7.50;;;3.20;;
23596;SDS011;40226;50.874;4.394;2022-11-15T14:52:32;6.97;;;3.47;;
23596;SDS011;40226;50.874;4.394;2022-11-15T14:54:59;7.25;;;3.28;;
23596;SDS011;40226;50.874;4.394;2022-11-15T14:57:27;6.60;;;3.58;;
23596;SDS011;40226;50.874;4.394;2022-11-15T14:59:53;4.97;;;3.50;;
23596;SDS011;40226;50.874;4.394;2022-11-15T15:02:23;5.72;;;3.70;;
23596;SDS011;40226;50.874;4.394;2022-11-15T15:04:50;5.03;;;2.95;;
23596;SDS011;40226;50.874;4.394;2022-11-15T15:07:16;8.60;;;3.67;;
23596;SDS011;40226;50.874;4.394;2022-11-15T15:09:44;8.57;;;3.30;;
23596;SDS011;40226;50.874;4.394;2022-11-15T15:12:17;5.53;;;3.58;;
23596;SDS011;40226;50.874;4.394;2022-11-15T15:14:44;12.43;;;6.25;;
23596;SDS011;40226;50.874;4.394;2022-11-15T15:17:11;5.15;;;3.55;;
23596;SDS011;40226;50.874;4.394;2022-11-15T15:19:37;6.45;;;3.50;;
23596;SDS011;40226;50.874;4.394;2022-11-15T15:22:02;8.68;;;3.80;;
23596;SDS011;40226;50.874;4.394;2022-11-15T15:24:28;8.43;;;4.05;;
23596;SDS011;40226;50.874;4.394;2022-11-15T15:26:53;7.53;;;3.92;;
23596;SDS011;40226;50.874;4.394;2022-11-15T15:29:19;9.30;;;3.95;;
23596;SDS011;40226;50.874;4.394;2022-11-15T15:31:45;7.10;;;4.15;;
23596;SDS011;40226;50.874;4.394;2022-11-15T15:34:10;8.25;;;4.68;;
23596;SDS011;40226;50.874;4.394;2022-11-15T15:36:36;8.25;;;4.05;;
23596;SDS011;40226;50.874;4.394;2022-11-15T15:39:02;7.00;;;3.90;;
23596;SDS011;40226;50.874;4.394;2022-11-15T15:41:27;8.88;;;3.78;;
23596;SDS011;40226;50.874;4.394;2022-11-15T15:43:54;6.78;;;3.83;;
23596;SDS011;40226;50.874;4.394;2022-11-15T15:46:20;6.43;;;3.67;;
23596;SDS011;40226;50.874;4.394;2022-11-15T15:48:46;7.72;;;3.78;;
23596;SDS011;40226;50.874;4.394;2022-11-15T15:51:12;6.75;;;3.95;;
23596;SDS011;40226;50.874;4.394;2022-11-15T15:53:37;9.23;;;3.63;;
23596;SDS011;40226;50.874;4.394;2022-11-15T15:56:03;7.22;;;4.13;;
23596;SDS011;40226;50.874;4.394;2022-11-15T15:58:32;9.23;;;4.32;;
23596;SDS011;40226;50.874;4.394;2022-11-15T16:00:58;8.90;;;4.38;;
23596;SDS011;40226;50.874;4.394;2022-11-15T16:03:24;6.88;;;4.47;;
23596;SDS011;40226;50.874;4.394;2022-11-15T16:05:50;8.43;;;4.15;;
23596;SDS011;40226;50.874;4.394;2022-11-15T16:08:20;8.00;;;4.20;;
23596;SDS011;40226;50.874;4.394;2022-11-15T16:10:48;8.50;;;4.05;;
23596;SDS011;40226;50.874;4.394;2022-11-15T16:13:14;9.15;;;4.80;;
23596;SDS011;40226;50.874;4.394;2022-11-15T16:15:40;8.00;;;4.60;;
23596;SDS011;40226;50.874;4.394;2022-11-15T16:18:16;9.90;;;5.35;;
23596;SDS011;40226;50.874;4.394;2022-11-15T16:23:10;8.30;;;5.10;;
23596;SDS011;40226;50.874;4.394;2022-11-15T16:25:55;6.60;;;5.22;;
23596;SDS011;40226;50.874;4.394;2022-11-15T16:33:29;5.80;;;4.85;;
23596;SDS011;40226;50.874;4.394;2022-11-15T16:35:55;8.45;;;4.78;;
23596;SDS011;40226;50.874;4.394;2022-11-15T16:38:20;8.95;;;5.07;;
23596;SDS011;40226;50.874;4.394;2022-11-15T16:40:46;10.30;;;6.03;;
23596;SDS011;40226;50.874;4.394;2022-11-15T16:43:12;8.88;;;5.45;;
23596;SDS011;40226;50.874;4.394;2022-11-15T16:45:38;8.52;;;5.53;;
23596;SDS011;40226;50.874;4.394;2022-11-15T16:48:03;9.55;;;6.63;;
23596;SDS011;40226;50.874;4.394;2022-11-15T16:50:30;11.52;;;7.07;;
23596;SDS011;40226;50.874;4.394;2022-11-15T16:53:05;9.60;;;6.05;;
23596;SDS011;40226;50.874;4.394;2022-11-15T16:55:30;9.65;;;6.32;;
23596;SDS011;40226;50.874;4.394;2022-11-15T16:57:56;9.48;;;6.80;;
23596;SDS011;40226;50.874;4.394;2022-11-15T17:00:23;11.35;;;6.93;;
23596;SDS011;40226;50.874;4.394;2022-11-15T17:02:50;13.02;;;7.35;;
23596;SDS011;40226;50.874;4.394;2022-11-15T17:05:17;12.38;;;7.25;;
23596;SDS011;40226;50.874;4.394;2022-11-15T17:07:45;10.00;;;6.82;;
23596;SDS011;40226;50.874;4.394;2022-11-15T17:10:18;9.15;;;5.85;;